sensor_id;sensor_type;location;lat;lon;timestamp;temperature;humidity
35445;DHT22;21562;49.476;6.086;2023-03-05T00:00:35;7.00;99.90
35445;DHT22;21562;49.476;6.086;2023-03-05T00:03:01;7.20;99.90
35445;DHT22;21562;49.476;6.086;2023-03-05T00:05:26;6.80;99.90
35445;DHT22;21562;49.476;6.086;2023-03-05T00:07:52;6.50;99.90
35445;DHT22;21562;49.476;6.086;2023-03-05T00:10:17;6.40;99.90
35445;DHT22;21562;49.476;6.086;2023-03-05T00:12:43;6.50;99.90
35445;DHT22;21562;49.476;6.086;2023-03-05T00:15:09;6.70;99.90
35445;DHT22;21562;49.476;6.086;2023-03-05T00:17:34;6.90;99.90
35445;DHT22;21562;49.476;6.086;2023-03-05T00:20:00;7.10;99.90
35445;DHT22;21562;49.476;6.086;2023-03-05T00:22:26;7.00;99.90
35445;DHT22;21562;49.476;6.086;2023-03-05T00:24:51;6.80;99.90
35445;DHT22;21562;49.476;6.086;2023-03-05T00:27:17;6.70;99.90
35445;DHT22;21562;49.476;6.086;2023-03-05T00:29:43;6.90;99.90
35445;DHT22;21562;49.476;6.086;2023-03-05T00:32:08;7.00;99.90
35445;DHT22;21562;49.476;6.086;2023-03-05T00:34:34;7.30;99.90
35445;DHT22;21562;49.476;6.086;2023-03-05T00:37:01;7.50;99.90
35445;DHT22;21562;49.476;6.086;2023-03-05T00:39:27;7.50;99.90
35445;DHT22;21562;49.476;6.086;2023-03-05T00:41:53;7.00;99.90
35445;DHT22;21562;49.476;6.086;2023-03-05T00:44:19;7.30;99.90
35445;DHT22;21562;49.476;6.086;2023-03-05T00:46:45;7.50;99.90
35445;DHT22;21562;49.476;6.086;2023-03-05T00:49:11;7.60;99.90
35445;DHT22;21562;49.476;6.086;2023-03-05T00:51:37;7.90;99.90
35445;DHT22;21562;49.476;6.086;2023-03-05T00:54:03;8.00;99.90
35445;DHT22;21562;49.476;6.086;2023-03-05T00:56:29;8.10;99.90
35445;DHT22;21562;49.476;6.086;2023-03-05T00:58:55;8.20;99.90
35445;DHT22;21562;49.476;6.086;2023-03-05T01:01:21;7.60;99.90
35445;DHT22;21562;49.476;6.086;2023-03-05T01:03:46;7.40;99.90
35445;DHT22;21562;49.476;6.086;2023-03-05T01:06:12;7.40;99.90
35445;DHT22;21562;49.476;6.086;2023-03-05T01:08:39;7.50;99.90
35445;DHT22;21562;49.476;6.086;2023-03-05T01:11:06;7.40;99.90
35445;DHT22;21562;49.476;6.086;2023-03-05T01:13:31;6.90;99.90
35445;DHT22;21562;49.476;6.086;2023-03-05T01:15:57;6.80;99.90
35445;DHT22;21562;49.476;6.086;2023-03-05T01:18:23;6.80;99.90
35445;DHT22;21562;49.476;6.086;2023-03-05T01:20:48;6.50;99.90
35445;DHT22;21562;49.476;6.086;2023-03-05T01:23:14;6.40;99.90
35445;DHT22;21562;49.476;6.086;2023-03-05T01:25:40;6.70;99.90
35445;DHT22;21562;49.476;6.086;2023-03-05T01:28:06;7.00;99.90
35445;DHT22;21562;49.476;6.086;2023-03-05T01:30:32;7.20;99.90
35445;DHT22;21562;49.476;6.086;2023-03-05T01:32:58;7.00;99.90
35445;DHT22;21562;49.476;6.086;2023-03-05T01:35:24;7.10;99.90
35445;DHT22;21562;49.476;6.086;2023-03-05T01:37:51;7.00;99.90
35445;DHT22;21562;49.476;6.086;2023-03-05T01:40:20;6.70;99.90
35445;DHT22;21562;49.476;6.086;2023-03-05T01:42:47;6.50;99.90
35445;DHT22;21562;49.476;6.086;2023-03-05T01:45:16;6.80;99.90
35445;DHT22;21562;49.476;6.086;2023-03-05T01:47:43;7.10;99.90
35445;DHT22;21562;49.476;6.086;2023-03-05T01:50:15;7.30;99.90
35445;DHT22;21562;49.476;6.086;2023-03-05T01:52:45;7.40;99.90
35445;DHT22;21562;49.476;6.086;2023-03-05T01:55:17;7.20;99.90
35445;DHT22;21562;49.476;6.086;2023-03-05T01:57:45;7.00;99.90
35445;DHT22;21562;49.476;6.086;2023-03-05T02:00:15;6.90;99.90
35445;DHT22;21562;49.476;6.086;2023-03-05T02:02:47;7.10;99.90
35445;DHT22;21562;49.476;6.086;2023-03-05T02:05:26;6.90;99.90
35445;DHT22;21562;49.476;6.086;2023-03-05T02:08:07;6.90;99.90
35445;DHT22;21562;49.476;6.086;2023-03-05T02:10:35;7.10;99.90
35445;DHT22;21562;49.476;6.086;2023-03-05T02:13:04;7.40;99.90
35445;DHT22;21562;49.476;6.086;2023-03-05T02:15:32;7.30;99.90
35445;DHT22;21562;49.476;6.086;2023-03-05T02:17:58;7.50;99.90
35445;DHT22;21562;49.476;6.086;2023-03-05T02:20:27;7.50;99.90
35445;DHT22;21562;49.476;6.086;2023-03-05T02:22:53;7.50;99.90
35445;DHT22;21562;49.476;6.086;2023-03-05T02:25:25;7.50;99.90
35445;DHT22;21562;49.476;6.086;2023-03-05T02:28:02;7.40;99.90
35445;DHT22;21562;49.476;6.086;2023-03-05T02:30:30;7.50;99.90
35445;DHT22;21562;49.476;6.086;2023-03-05T02:32:56;7.50;99.90
35445;DHT22;21562;49.476;6.086;2023-03-05T02:35:23;7.60;99.90
35445;DHT22;21562;49.476;6.086;2023-03-05T02:37:49;7.70;99.90
35445;DHT22;21562;49.476;6.086;2023-03-05T02:40:15;7.70;99.90
35445;DHT22;21562;49.476;6.086;2023-03-05T02:42:41;7.50;99.90
35445;DHT22;21562;49.476;6.086;2023-03-05T02:45:08;7.70;99.90
35445;DHT22;21562;49.476;6.086;2023-03-05T02:47:35;7.70;99.90
35445;DHT22;21562;49.476;6.086;2023-03-05T02:50:01;7.90;99.90
35445;DHT22;21562;49.476;6.086;2023-03-05T02:52:28;7.80;99.90
35445;DHT22;21562;49.476;6.086;2023-03-05T02:54:54;7.70;99.90
35445;DHT22;21562;49.476;6.086;2023-03-05T02:57:19;7.40;99.90
35445;DHT22;21562;49.476;6.086;2023-03-05T02:59:46;7.50;99.90
35445;DHT22;21562;49.476;6.086;2023-03-05T03:02:12;7.40;99.90
35445;DHT22;21562;49.476;6.086;2023-03-05T03:04:37;7.40;99.90
35445;DHT22;21562;49.476;6.086;2023-03-05T03:07:03;7.40;99.90
35445;DHT22;21562;49.476;6.086;2023-03-05T03:09:29;7.30;99.90
35445;DHT22;21562;49.476;6.086;2023-03-05T03:11:54;7.50;99.90
35445;DHT22;21562;49.476;6.086;2023-03-05T03:14:20;7.10;99.90
35445;DHT22;21562;49.476;6.086;2023-03-05T03:16:46;7.30;99.90
35445;DHT22;21562;49.476;6.086;2023-03-05T03:19:12;7.40;99.90
35445;DHT22;21562;49.476;6.086;2023-03-05T03:21:38;7.50;99.90
35445;DHT22;21562;49.476;6.086;2023-03-05T03:24:04;7.70;99.90
35445;DHT22;21562;49.476;6.086;2023-03-05T03:26:29;7.50;99.90
35445;DHT22;21562;49.476;6.086;2023-03-05T03:28:56;7.70;99.90
35445;DHT22;21562;49.476;6.086;2023-03-05T03:31:22;7.90;99.90
35445;DHT22;21562;49.476;6.086;2023-03-05T03:33:48;8.00;99.90
35445;DHT22;21562;49.476;6.086;2023-03-05T03:36:13;8.00;99.90
35445;DHT22;21562;49.476;6.086;2023-03-05T03:38:39;8.00;99.90
35445;DHT22;21562;49.476;6.086;2023-03-05T03:41:05;7.80;99.90
35445;DHT22;21562;49.476;6.086;2023-03-05T03:43:32;8.00;99.90
35445;DHT22;21562;49.476;6.086;2023-03-05T03:45:58;8.10;99.90
35445;DHT22;21562;49.476;6.086;2023-03-05T03:48:24;7.90;99.90
35445;DHT22;21562;49.476;6.086;2023-03-05T03:50:49;7.60;99.90
35445;DHT22;21562;49.476;6.086;2023-03-05T03:53:15;7.70;99.90
35445;DHT22;21562;49.476;6.086;2023-03-05T03:55:42;7.80;99.90
35445;DHT22;21562;49.476;6.086;2023-03-05T03:58:09;8.00;99.90
35445;DHT22;21562;49.476;6.086;2023-03-05T04:00:34;7.90;99.90
35445;DHT22;21562;49.476;6.086;2023-03-05T04:03:00;8.10;99.90
35445;DHT22;21562;49.476;6.086;2023-03-05T04:05:26;7.90;99.90
35445;DHT22;21562;49.476;6.086;2023-03-05T04:07:52;8.00;99.90
35445;DHT22;21562;49.476;6.086;2023-03-05T04:10:17;7.80;99.90
35445;DHT22;21562;49.476;6.086;2023-03-05T04:12:43;7.70;99.90
35445;DHT22;21562;49.476;6.086;2023-03-05T04:15:10;7.40;99.90
35445;DHT22;21562;49.476;6.086;2023-03-05T04:17:36;7.10;99.90
35445;DHT22;21562;49.476;6.086;2023-03-05T04:20:02;6.90;99.90
35445;DHT22;21562;49.476;6.086;2023-03-05T04:22:30;7.00;99.90
35445;DHT22;21562;49.476;6.086;2023-03-05T04:24:55;7.30;99.90
35445;DHT22;21562;49.476;6.086;2023-03-05T04:27:21;7.50;99.90
35445;DHT22;21562;49.476;6.086;2023-03-05T04:29:46;7.60;99.90
35445;DHT22;21562;49.476;6.086;2023-03-05T04:32:12;7.50;99.90
35445;DHT22;21562;49.476;6.086;2023-03-05T04:34:38;7.50;99.90
35445;DHT22;21562;49.476;6.086;2023-03-05T04:37:03;7.30;99.90
35445;DHT22;21562;49.476;6.086;2023-03-05T04:39:29;7.50;99.90
35445;DHT22;21562;49.476;6.086;2023-03-05T04:41:55;7.50;99.90
35445;DHT22;21562;49.476;6.086;2023-03-05T04:44:20;7.80;99.90
35445;DHT22;21562;49.476;6.086;2023-03-05T04:46:48;7.90;99.90
35445;DHT22;21562;49.476;6.086;2023-03-05T04:49:14;7.80;99.90
35445;DHT22;21562;49.476;6.086;2023-03-05T04:51:40;7.50;99.90
35445;DHT22;21562;49.476;6.086;2023-03-05T04:54:06;7.50;99.90
35445;DHT22;21562;49.476;6.086;2023-03-05T04:56:32;7.20;99.90
35445;DHT22;21562;49.476;6.086;2023-03-05T04:58:58;6.90;99.90
35445;DHT22;21562;49.476;6.086;2023-03-05T05:01:24;6.90;99.90
35445;DHT22;21562;49.476;6.086;2023-03-05T05:03:49;7.00;99.90
35445;DHT22;21562;49.476;6.086;2023-03-05T05:06:15;7.30;99.90
35445;DHT22;21562;49.476;6.086;2023-03-05T05:08:40;7.50;99.90
35445;DHT22;21562;49.476;6.086;2023-03-05T05:11:07;7.60;99.90
35445;DHT22;21562;49.476;6.086;2023-03-05T05:13:33;7.80;99.90
35445;DHT22;21562;49.476;6.086;2023-03-05T05:15:59;7.90;99.90
35445;DHT22;21562;49.476;6.086;2023-03-05T05:18:25;7.90;99.90
35445;DHT22;21562;49.476;6.086;2023-03-05T05:20:51;7.90;99.90
35445;DHT22;21562;49.476;6.086;2023-03-05T05:23:17;8.10;99.90
35445;DHT22;21562;49.476;6.086;2023-03-05T05:25:43;8.10;99.90
35445;DHT22;21562;49.476;6.086;2023-03-05T05:28:10;8.20;99.90
35445;DHT22;21562;49.476;6.086;2023-03-05T05:30:37;8.20;99.90
35445;DHT22;21562;49.476;6.086;2023-03-05T05:33:02;8.10;99.90
35445;DHT22;21562;49.476;6.086;2023-03-05T05:35:28;8.00;99.90
35445;DHT22;21562;49.476;6.086;2023-03-05T05:37:53;7.70;99.90
35445;DHT22;21562;49.476;6.086;2023-03-05T05:40:19;7.80;99.90
35445;DHT22;21562;49.476;6.086;2023-03-05T05:42:45;7.80;99.90
35445;DHT22;21562;49.476;6.086;2023-03-05T05:45:11;7.90;99.90
35445;DHT22;21562;49.476;6.086;2023-03-05T05:47:36;8.00;99.90
35445;DHT22;21562;49.476;6.086;2023-03-05T05:50:03;8.20;99.90
35445;DHT22;21562;49.476;6.086;2023-03-05T05:52:29;8.10;99.90
35445;DHT22;21562;49.476;6.086;2023-03-05T05:54:55;8.00;99.90
35445;DHT22;21562;49.476;6.086;2023-03-05T05:57:20;8.00;99.90
35445;DHT22;21562;49.476;6.086;2023-03-05T05:59:46;8.00;99.90
35445;DHT22;21562;49.476;6.086;2023-03-05T06:02:12;7.90;99.90
35445;DHT22;21562;49.476;6.086;2023-03-05T06:04:37;8.00;99.90
35445;DHT22;21562;49.476;6.086;2023-03-05T06:07:05;8.00;99.90
35445;DHT22;21562;49.476;6.086;2023-03-05T06:09:30;8.00;99.90
35445;DHT22;21562;49.476;6.086;2023-03-05T06:11:56;8.00;99.90
35445;DHT22;21562;49.476;6.086;2023-03-05T06:14:22;8.00;99.90
35445;DHT22;21562;49.476;6.086;2023-03-05T06:16:47;8.00;99.90
35445;DHT22;21562;49.476;6.086;2023-03-05T06:19:14;8.00;99.90
35445;DHT22;21562;49.476;6.086;2023-03-05T06:21:40;8.10;99.90
35445;DHT22;21562;49.476;6.086;2023-03-05T06:24:07;8.10;99.90
35445;DHT22;21562;49.476;6.086;2023-03-05T06:26:33;8.10;99.90
35445;DHT22;21562;49.476;6.086;2023-03-05T06:28:59;8.20;99.90
35445;DHT22;21562;49.476;6.086;2023-03-05T06:31:26;8.30;99.90
35445;DHT22;21562;49.476;6.086;2023-03-05T06:33:58;8.30;99.90
35445;DHT22;21562;49.476;6.086;2023-03-05T06:36:26;8.10;99.90
35445;DHT22;21562;49.476;6.086;2023-03-05T06:38:52;8.00;99.90
35445;DHT22;21562;49.476;6.086;2023-03-05T06:41:21;7.70;99.90
35445;DHT22;21562;49.476;6.086;2023-03-05T06:43:47;7.30;99.90
35445;DHT22;21562;49.476;6.086;2023-03-05T06:46:25;7.50;99.90
35445;DHT22;21562;49.476;6.086;2023-03-05T06:48:53;7.50;99.90
35445;DHT22;21562;49.476;6.086;2023-03-05T06:51:22;7.80;99.90
35445;DHT22;21562;49.476;6.086;2023-03-05T06:53:49;7.90;99.90
35445;DHT22;21562;49.476;6.086;2023-03-05T06:56:15;8.00;99.90
35445;DHT22;21562;49.476;6.086;2023-03-05T06:58:42;7.90;99.90
35445;DHT22;21562;49.476;6.086;2023-03-05T07:01:08;8.10;99.90
35445;DHT22;21562;49.476;6.086;2023-03-05T07:03:35;8.10;99.90
35445;DHT22;21562;49.476;6.086;2023-03-05T07:06:03;7.90;99.90
35445;DHT22;21562;49.476;6.086;2023-03-05T07:08:29;7.50;99.90
35445;DHT22;21562;49.476;6.086;2023-03-05T07:10:54;7.20;99.90
35445;DHT22;21562;49.476;6.086;2023-03-05T07:13:20;7.30;99.90
35445;DHT22;21562;49.476;6.086;2023-03-05T07:15:45;7.50;99.90
35445;DHT22;21562;49.476;6.086;2023-03-05T07:18:11;7.40;99.90
35445;DHT22;21562;49.476;6.086;2023-03-05T07:20:37;7.50;99.90
35445;DHT22;21562;49.476;6.086;2023-03-05T07:23:03;7.60;99.90
35445;DHT22;21562;49.476;6.086;2023-03-05T07:25:29;7.60;99.90
35445;DHT22;21562;49.476;6.086;2023-03-05T07:27:55;7.60;99.90
35445;DHT22;21562;49.476;6.086;2023-03-05T07:30:21;7.40;99.90
35445;DHT22;21562;49.476;6.086;2023-03-05T07:32:46;7.00;99.90
35445;DHT22;21562;49.476;6.086;2023-03-05T07:35:12;6.90;99.90
35445;DHT22;21562;49.476;6.086;2023-03-05T07:37:38;7.00;99.90
35445;DHT22;21562;49.476;6.086;2023-03-05T07:40:04;6.70;99.90
35445;DHT22;21562;49.476;6.086;2023-03-05T07:42:30;6.30;99.90
35445;DHT22;21562;49.476;6.086;2023-03-05T07:44:56;6.20;99.90
35445;DHT22;21562;49.476;6.086;2023-03-05T07:47:21;6.50;99.90
35445;DHT22;21562;49.476;6.086;2023-03-05T07:49:50;6.50;99.90
35445;DHT22;21562;49.476;6.086;2023-03-05T07:52:15;6.50;99.90
35445;DHT22;21562;49.476;6.086;2023-03-05T07:54:41;6.50;99.90
35445;DHT22;21562;49.476;6.086;2023-03-05T07:57:09;6.30;99.90
35445;DHT22;21562;49.476;6.086;2023-03-05T07:59:35;6.10;99.90
35445;DHT22;21562;49.476;6.086;2023-03-05T08:02:01;6.00;99.90
35445;DHT22;21562;49.476;6.086;2023-03-05T08:04:26;6.20;99.90
35445;DHT22;21562;49.476;6.086;2023-03-05T08:06:54;6.00;99.90
35445;DHT22;21562;49.476;6.086;2023-03-05T08:09:19;6.10;99.90
35445;DHT22;21562;49.476;6.086;2023-03-05T08:11:45;6.40;99.90
35445;DHT22;21562;49.476;6.086;2023-03-05T08:14:10;6.30;99.90
35445;DHT22;21562;49.476;6.086;2023-03-05T08:16:37;6.60;99.90
35445;DHT22;21562;49.476;6.086;2023-03-05T08:19:03;6.80;99.90
35445;DHT22;21562;49.476;6.086;2023-03-05T08:21:31;7.10;99.90
35445;DHT22;21562;49.476;6.086;2023-03-05T08:24:05;7.30;99.90
35445;DHT22;21562;49.476;6.086;2023-03-05T08:26:33;6.80;99.90
35445;DHT22;21562;49.476;6.086;2023-03-05T08:28:59;6.20;99.90
35445;DHT22;21562;49.476;6.086;2023-03-05T08:31:26;6.40;99.90
35445;DHT22;21562;49.476;6.086;2023-03-05T08:33:55;6.70;99.90
35445;DHT22;21562;49.476;6.086;2023-03-05T08:36:21;6.70;99.90
35445;DHT22;21562;49.476;6.086;2023-03-05T08:38:47;6.40;99.90
35445;DHT22;21562;49.476;6.086;2023-03-05T08:41:14;5.80;99.90
35445;DHT22;21562;49.476;6.086;2023-03-05T08:43:40;5.40;99.90
35445;DHT22;21562;49.476;6.086;2023-03-05T08:46:06;5.60;99.90
35445;DHT22;21562;49.476;6.086;2023-03-05T08:48:32;6.00;99.90
35445;DHT22;21562;49.476;6.086;2023-03-05T08:51:10;6.10;99.90
35445;DHT22;21562;49.476;6.086;2023-03-05T08:53:36;6.30;99.90
35445;DHT22;21562;49.476;6.086;2023-03-05T08:56:02;6.50;99.90
35445;DHT22;21562;49.476;6.086;2023-03-05T08:58:28;6.20;99.90
35445;DHT22;21562;49.476;6.086;2023-03-05T09:00:54;6.40;99.90
35445;DHT22;21562;49.476;6.086;2023-03-05T09:03:21;6.60;99.90
35445;DHT22;21562;49.476;6.086;2023-03-05T09:05:47;6.80;99.90
35445;DHT22;21562;49.476;6.086;2023-03-05T09:08:13;6.70;99.90
35445;DHT22;21562;49.476;6.086;2023-03-05T09:10:40;6.90;99.90
35445;DHT22;21562;49.476;6.086;2023-03-05T09:13:07;6.20;99.90
35445;DHT22;21562;49.476;6.086;2023-03-05T09:15:32;6.20;99.90
35445;DHT22;21562;49.476;6.086;2023-03-05T09:17:58;6.50;99.90
35445;DHT22;21562;49.476;6.086;2023-03-05T09:20:24;6.90;99.90
35445;DHT22;21562;49.476;6.086;2023-03-05T09:22:49;7.10;99.90
35445;DHT22;21562;49.476;6.086;2023-03-05T09:25:15;7.30;99.90
35445;DHT22;21562;49.476;6.086;2023-03-05T09:27:41;6.90;99.90
35445;DHT22;21562;49.476;6.086;2023-03-05T09:30:10;6.50;99.90
35445;DHT22;21562;49.476;6.086;2023-03-05T09:32:36;6.40;99.90
35445;DHT22;21562;49.476;6.086;2023-03-05T09:35:02;6.60;99.90
35445;DHT22;21562;49.476;6.086;2023-03-05T09:37:28;7.00;99.90
35445;DHT22;21562;49.476;6.086;2023-03-05T09:39:54;7.30;99.90
35445;DHT22;21562;49.476;6.086;2023-03-05T09:45:24;6.50;99.90
35445;DHT22;21562;49.476;6.086;2023-03-05T09:50:44;6.70;99.90
35445;DHT22;21562;49.476;6.086;2023-03-05T09:55:58;6.40;99.90
35445;DHT22;21562;49.476;6.086;2023-03-05T09:58:40;6.30;99.90
35445;DHT22;21562;49.476;6.086;2023-03-05T10:12:22;7.00;99.90
35445;DHT22;21562;49.476;6.086;2023-03-05T10:14:52;7.40;99.90
35445;DHT22;21562;49.476;6.086;2023-03-05T10:28:43;7.10;99.90
35445;DHT22;21562;49.476;6.086;2023-03-05T10:37:03;8.00;99.90
35445;DHT22;21562;49.476;6.086;2023-03-05T10:42:41;7.90;99.90
35445;DHT22;21562;49.476;6.086;2023-03-05T10:48:38;6.80;99.90
35445;DHT22;21562;49.476;6.086;2023-03-05T10:53:54;7.30;99.90
35445;DHT22;21562;49.476;6.086;2023-03-05T10:56:23;7.50;99.90
35445;DHT22;21562;49.476;6.086;2023-03-05T10:58:49;7.30;99.90
35445;DHT22;21562;49.476;6.086;2023-03-05T11:08:51;6.60;99.90
35445;DHT22;21562;49.476;6.086;2023-03-05T11:11:19;6.50;99.90
35445;DHT22;21562;49.476;6.086;2023-03-05T11:16:29;6.90;99.90
35445;DHT22;21562;49.476;6.086;2023-03-05T11:19:18;7.20;99.90
35445;DHT22;21562;49.476;6.086;2023-03-05T11:21:46;7.50;99.90
35445;DHT22;21562;49.476;6.086;2023-03-05T11:24:28;7.70;99.90
35445;DHT22;21562;49.476;6.086;2023-03-05T11:26:56;7.50;99.90
35445;DHT22;21562;49.476;6.086;2023-03-05T11:29:32;6.40;99.90
35445;DHT22;21562;49.476;6.086;2023-03-05T11:32:24;6.00;99.90
35445;DHT22;21562;49.476;6.086;2023-03-05T11:34:51;5.90;99.90
35445;DHT22;21562;49.476;6.086;2023-03-05T11:37:27;6.00;99.90
35445;DHT22;21562;49.476;6.086;2023-03-05T11:42:43;6.90;99.90
35445;DHT22;21562;49.476;6.086;2023-03-05T11:45:17;7.10;99.90
35445;DHT22;21562;49.476;6.086;2023-03-05T11:52:47;7.60;99.90
35445;DHT22;21562;49.476;6.086;2023-03-05T11:55:29;7.80;99.90
35445;DHT22;21562;49.476;6.086;2023-03-05T12:00:37;8.00;99.90
35445;DHT22;21562;49.476;6.086;2023-03-05T12:03:21;7.60;99.90
35445;DHT22;21562;49.476;6.086;2023-03-05T12:05:51;7.10;99.90
35445;DHT22;21562;49.476;6.086;2023-03-05T12:08:24;6.50;99.90
35445;DHT22;21562;49.476;6.086;2023-03-05T12:10:52;6.60;99.90
35445;DHT22;21562;49.476;6.086;2023-03-05T12:13:36;7.10;99.90
35445;DHT22;21562;49.476;6.086;2023-03-05T12:16:31;7.00;99.90
35445;DHT22;21562;49.476;6.086;2023-03-05T12:21:41;7.40;99.90
35445;DHT22;21562;49.476;6.086;2023-03-05T12:31:59;6.90;99.90
35445;DHT22;21562;49.476;6.086;2023-03-05T12:37:01;6.90;99.90
35445;DHT22;21562;49.476;6.086;2023-03-05T12:47:42;6.70;99.90
35445;DHT22;21562;49.476;6.086;2023-03-05T12:53:03;7.20;99.90
35445;DHT22;21562;49.476;6.086;2023-03-05T12:55:56;7.20;99.90
35445;DHT22;21562;49.476;6.086;2023-03-05T13:01:39;7.50;99.90
35445;DHT22;21562;49.476;6.086;2023-03-05T13:04:05;7.60;99.90
35445;DHT22;21562;49.476;6.086;2023-03-05T13:06:37;8.00;99.90
35445;DHT22;21562;49.476;6.086;2023-03-05T13:09:24;8.00;99.90
35445;DHT22;21562;49.476;6.086;2023-03-05T13:11:53;7.50;99.90
35445;DHT22;21562;49.476;6.086;2023-03-05T13:14:39;7.40;99.90
35445;DHT22;21562;49.476;6.086;2023-03-05T13:17:28;7.40;99.90
35445;DHT22;21562;49.476;6.086;2023-03-05T13:19:55;7.30;99.90
35445;DHT22;21562;49.476;6.086;2023-03-05T13:22:21;7.20;99.90
35445;DHT22;21562;49.476;6.086;2023-03-05T13:25:12;7.10;99.90
35445;DHT22;21562;49.476;6.086;2023-03-05T13:27:38;7.50;99.90
35445;DHT22;21562;49.476;6.086;2023-03-05T13:30:04;7.80;99.90
35445;DHT22;21562;49.476;6.086;2023-03-05T13:32:31;8.10;99.90
35445;DHT22;21562;49.476;6.086;2023-03-05T13:34:59;8.50;99.90
35445;DHT22;21562;49.476;6.086;2023-03-05T13:37:27;8.70;99.90
35445;DHT22;21562;49.476;6.086;2023-03-05T13:40:14;8.90;99.90
35445;DHT22;21562;49.476;6.086;2023-03-05T13:42:43;8.60;99.90
35445;DHT22;21562;49.476;6.086;2023-03-05T13:45:28;8.00;99.90
35445;DHT22;21562;49.476;6.086;2023-03-05T13:47:59;7.90;99.90
35445;DHT22;21562;49.476;6.086;2023-03-05T13:50:36;7.80;99.90
35445;DHT22;21562;49.476;6.086;2023-03-05T13:53:31;7.70;99.90
35445;DHT22;21562;49.476;6.086;2023-03-05T13:56:07;7.70;99.90
35445;DHT22;21562;49.476;6.086;2023-03-05T14:07:06;8.90;99.10
35445;DHT22;21562;49.476;6.086;2023-03-05T14:14:57;8.00;99.90
35445;DHT22;21562;49.476;6.086;2023-03-05T14:17:31;7.60;99.90
35445;DHT22;21562;49.476;6.086;2023-03-05T14:22:44;7.40;99.90
35445;DHT22;21562;49.476;6.086;2023-03-05T14:25:35;7.50;99.90
35445;DHT22;21562;49.476;6.086;2023-03-05T14:30:50;7.90;99.90
35445;DHT22;21562;49.476;6.086;2023-03-05T14:33:25;8.00;99.90
35445;DHT22;21562;49.476;6.086;2023-03-05T14:35:52;8.20;99.90
35445;DHT22;21562;49.476;6.086;2023-03-05T14:38:25;8.50;99.90
35445;DHT22;21562;49.476;6.086;2023-03-05T14:40:52;8.20;99.90
35445;DHT22;21562;49.476;6.086;2023-03-05T14:43:17;8.10;99.90
35445;DHT22;21562;49.476;6.086;2023-03-05T14:45:43;7.80;99.90
35445;DHT22;21562;49.476;6.086;2023-03-05T14:48:11;7.70;99.90
35445;DHT22;21562;49.476;6.086;2023-03-05T14:50:45;7.90;99.90
35445;DHT22;21562;49.476;6.086;2023-03-05T14:53:37;8.00;99.90
35445;DHT22;21562;49.476;6.086;2023-03-05T14:56:05;8.10;99.90
35445;DHT22;21562;49.476;6.086;2023-03-05T14:58:40;8.10;99.90
35445;DHT22;21562;49.476;6.086;2023-03-05T15:01:06;7.40;99.90
35445;DHT22;21562;49.476;6.086;2023-03-05T15:03:31;7.30;99.90
35445;DHT22;21562;49.476;6.086;2023-03-05T15:05:58;7.30;99.90
35445;DHT22;21562;49.476;6.086;2023-03-05T15:08:29;7.40;99.90
35445;DHT22;21562;49.476;6.086;2023-03-05T15:10:57;7.60;99.90
35445;DHT22;21562;49.476;6.086;2023-03-05T15:13:22;7.40;99.90
35445;DHT22;21562;49.476;6.086;2023-03-05T15:15:49;7.30;99.90
35445;DHT22;21562;49.476;6.086;2023-03-05T15:18:17;7.20;99.90
35445;DHT22;21562;49.476;6.086;2023-03-05T15:20:44;7.30;99.90
35445;DHT22;21562;49.476;6.086;2023-03-05T15:23:10;7.30;99.90
35445;DHT22;21562;49.476;6.086;2023-03-05T15:25:38;7.50;99.90
35445;DHT22;21562;49.476;6.086;2023-03-05T15:28:04;7.50;99.90
35445;DHT22;21562;49.476;6.086;2023-03-05T15:30:32;7.80;99.90
35445;DHT22;21562;49.476;6.086;2023-03-05T15:33:07;7.90;99.90
35445;DHT22;21562;49.476;6.086;2023-03-05T15:35:33;7.60;99.90
35445;DHT22;21562;49.476;6.086;2023-03-05T15:37:59;7.30;99.90
35445;DHT22;21562;49.476;6.086;2023-03-05T15:40:25;7.20;99.90
35445;DHT22;21562;49.476;6.086;2023-03-05T15:42:52;7.00;99.90
35445;DHT22;21562;49.476;6.086;2023-03-05T15:45:18;6.90;99.90
35445;DHT22;21562;49.476;6.086;2023-03-05T15:47:46;7.10;99.90
35445;DHT22;21562;49.476;6.086;2023-03-05T15:50:12;7.10;99.90
35445;DHT22;21562;49.476;6.086;2023-03-05T15:52:37;7.30;99.90
35445;DHT22;21562;49.476;6.086;2023-03-05T15:55:03;7.10;99.90
35445;DHT22;21562;49.476;6.086;2023-03-05T15:57:34;7.00;99.90
35445;DHT22;21562;49.476;6.086;2023-03-05T16:00:01;7.00;99.90
35445;DHT22;21562;49.476;6.086;2023-03-05T16:02:27;7.20;99.90
35445;DHT22;21562;49.476;6.086;2023-03-05T16:04:53;7.00;99.90
35445;DHT22;21562;49.476;6.086;2023-03-05T16:07:19;7.30;99.90
35445;DHT22;21562;49.476;6.086;2023-03-05T16:09:47;7.20;99.90
35445;DHT22;21562;49.476;6.086;2023-03-05T16:12:18;7.00;99.90
35445;DHT22;21562;49.476;6.086;2023-03-05T16:14:44;7.00;99.90
35445;DHT22;21562;49.476;6.086;2023-03-05T16:17:10;7.00;99.90
35445;DHT22;21562;49.476;6.086;2023-03-05T16:19:39;7.10;99.90
35445;DHT22;21562;49.476;6.086;2023-03-05T16:22:06;7.20;99.90
35445;DHT22;21562;49.476;6.086;2023-03-05T16:24:32;7.10;99.90
35445;DHT22;21562;49.476;6.086;2023-03-05T16:26:57;7.10;99.90
35445;DHT22;21562;49.476;6.086;2023-03-05T16:29:23;6.80;99.90
35445;DHT22;21562;49.476;6.086;2023-03-05T16:31:50;6.70;99.90
35445;DHT22;21562;49.476;6.086;2023-03-05T16:34:16;6.60;99.90
35445;DHT22;21562;49.476;6.086;2023-03-05T16:36:48;6.70;99.90
35445;DHT22;21562;49.476;6.086;2023-03-05T16:39:15;6.70;99.90
35445;DHT22;21562;49.476;6.086;2023-03-05T16:41:40;6.70;99.90
35445;DHT22;21562;49.476;6.086;2023-03-05T16:44:06;6.80;99.90
35445;DHT22;21562;49.476;6.086;2023-03-05T16:46:32;7.20;99.90
35445;DHT22;21562;49.476;6.086;2023-03-05T16:48:57;7.00;99.90
35445;DHT22;21562;49.476;6.086;2023-03-05T16:51:23;7.00;99.90
35445;DHT22;21562;49.476;6.086;2023-03-05T16:53:49;7.00;99.90
35445;DHT22;21562;49.476;6.086;2023-03-05T16:56:15;7.20;99.90
35445;DHT22;21562;49.476;6.086;2023-03-05T16:58:41;7.40;99.90
35445;DHT22;21562;49.476;6.086;2023-03-05T17:01:14;7.50;99.90
35445;DHT22;21562;49.476;6.086;2023-03-05T17:03:41;7.50;99.90
35445;DHT22;21562;49.476;6.086;2023-03-05T17:06:10;7.60;99.90
35445;DHT22;21562;49.476;6.086;2023-03-05T17:08:35;7.70;99.90
35445;DHT22;21562;49.476;6.086;2023-03-05T17:11:01;7.30;99.90
35445;DHT22;21562;49.476;6.086;2023-03-05T17:13:27;7.20;99.90
35445;DHT22;21562;49.476;6.086;2023-03-05T17:15:52;7.30;99.90
35445;DHT22;21562;49.476;6.086;2023-03-05T17:18:18;7.40;99.90
35445;DHT22;21562;49.476;6.086;2023-03-05T17:20:43;7.30;99.90
35445;DHT22;21562;49.476;6.086;2023-03-05T17:23:09;7.10;99.90
35445;DHT22;21562;49.476;6.086;2023-03-05T17:25:36;7.20;99.90
35445;DHT22;21562;49.476;6.086;2023-03-05T17:28:01;7.40;99.90
35445;DHT22;21562;49.476;6.086;2023-03-05T17:30:27;7.30;99.90
35445;DHT22;21562;49.476;6.086;2023-03-05T17:32:55;7.40;99.90
35445;DHT22;21562;49.476;6.086;2023-03-05T17:35:21;7.20;99.90
35445;DHT22;21562;49.476;6.086;2023-03-05T17:37:47;7.10;99.90
35445;DHT22;21562;49.476;6.086;2023-03-05T17:40:14;7.00;99.90
35445;DHT22;21562;49.476;6.086;2023-03-05T17:42:39;6.90;99.90